createdAt,value
2022-09-28T00:01:23.480Z,12.16
2022-09-28T00:03:54.693Z,12.13
2022-09-28T00:06:25.409Z,12.11
2022-09-28T00:08:53.499Z,12.08
2022-09-28T00:11:23.409Z,12.04
2022-09-28T00:13:53.956Z,12.01
2022-09-28T00:16:25.835Z,11.97
2022-09-28T00:18:54.377Z,11.95
2022-09-28T00:21:24.649Z,11.91
2022-09-28T00:24:12.786Z,11.87
2022-09-28T00:27:01.522Z,11.85
2022-09-28T00:29:35.318Z,11.81
2022-09-28T00:32:10.657Z,11.79
2022-09-28T00:34:42.599Z,11.76
2022-09-28T00:37:11.474Z,11.72
2022-09-28T00:39:43.529Z,11.70
2022-09-28T00:42:26.314Z,11.70
2022-09-28T00:45:01.875Z,11.68
2022-09-28T00:47:56.387Z,11.65
2022-09-28T00:50:34.132Z,11.64
2022-09-28T00:53:13.045Z,11.64
2022-09-28T00:55:50.510Z,11.65
2022-09-28T00:58:30.084Z,11.65
2022-09-28T01:01:01.123Z,11.66
2022-09-28T01:03:30.361Z,11.66
2022-09-28T01:06:02.534Z,11.67
2022-09-28T01:08:33.855Z,11.66
2022-09-28T01:11:02.219Z,11.65
2022-09-28T01:13:32.215Z,11.65
2022-09-28T01:16:08.277Z,11.66
2022-09-28T01:18:55.706Z,11.68
2022-09-28T01:21:25.136Z,11.69
2022-09-28T01:24:00.161Z,11.71
2022-09-28T01:26:56.423Z,11.72
2022-09-28T01:29:34.440Z,11.73
2022-09-28T01:32:32.310Z,11.76
2022-09-28T01:35:07.085Z,11.77
2022-09-28T01:38:09.700Z,11.78
2022-09-28T01:40:37.991Z,11.78
2022-09-28T01:43:11.660Z,11.77
2022-09-28T01:45:46.659Z,11.76
2022-09-28T01:48:24.668Z,11.76
2022-09-28T01:50:58.022Z,11.76
2022-09-28T01:53:41.340Z,11.76
2022-09-28T01:56:42.096Z,11.75
2022-09-28T01:59:20.799Z,11.73
2022-09-28T02:02:03.976Z,11.73
2022-09-28T02:04:39.712Z,11.74
2022-09-28T02:07:24.513Z,11.74
2022-09-28T02:09:58.580Z,11.75
2022-09-28T02:12:35.013Z,11.75
2022-09-28T02:15:42.391Z,11.75
2022-09-28T02:18:10.663Z,11.75
2022-09-28T02:20:41.165Z,11.76
2022-09-28T02:23:10.394Z,11.77
2022-09-28T02:25:47.281Z,11.78
2022-09-28T02:28:15.392Z,11.79
2022-09-28T02:30:44.764Z,11.80
2022-09-28T02:33:28.498Z,11.81
2022-09-28T02:35:58.645Z,11.82
2022-09-28T02:38:26.873Z,11.84
2022-09-28T02:41:05.656Z,11.85
2022-09-28T02:43:45.997Z,11.86
2022-09-28T02:46:28.950Z,11.86
2022-09-28T02:49:38.946Z,11.87
2022-09-28T02:52:25.220Z,11.85
2022-09-28T02:55:44.883Z,11.84
2022-09-28T02:58:37.734Z,11.80
2022-09-28T03:01:25.281Z,11.79
2022-09-28T03:04:02.420Z,11.78
2022-09-28T03:06:46.239Z,11.77
2022-09-28T03:09:22.962Z,11.74
2022-09-28T03:11:56.339Z,11.70
2022-09-28T03:14:24.574Z,11.69
2022-09-28T03:16:55.563Z,11.67
2022-09-28T03:19:29.029Z,11.66
2022-09-28T03:21:56.996Z,11.62
2022-09-28T03:24:25.122Z,11.57
2022-09-28T03:26:53.187Z,11.54
2022-09-28T03:29:21.243Z,11.51
2022-09-28T03:31:52.850Z,11.49
2022-09-28T03:34:20.852Z,11.48
2022-09-28T03:36:49.077Z,11.46
2022-09-28T03:39:16.892Z,11.44
2022-09-28T03:41:44.856Z,11.42
2022-09-28T03:44:12.956Z,11.41
2022-09-28T03:46:41.026Z,11.40
2022-09-28T03:49:10.692Z,11.37
2022-09-28T03:51:38.865Z,11.35
2022-09-28T03:54:09.852Z,11.33
2022-09-28T03:56:37.698Z,11.30
2022-09-28T03:59:06.222Z,11.29
2022-09-28T04:01:34.089Z,11.27
2022-09-28T04:04:02.021Z,11.25
2022-09-28T04:06:31.000Z,11.24
2022-09-28T04:08:58.782Z,11.22
2022-09-28T04:11:26.718Z,11.22
2022-09-28T04:13:54.796Z,11.22
2022-09-28T04:16:24.361Z,11.22
2022-09-28T04:18:59.963Z,11.21
2022-09-28T04:21:50.637Z,11.18
2022-09-28T04:24:20.480Z,11.16
2022-09-28T04:26:49.521Z,11.13
2022-09-28T04:29:19.269Z,11.10
2022-09-28T04:31:55.804Z,11.08
2022-09-28T04:34:44.443Z,11.06
2022-09-28T04:37:13.052Z,11.04
2022-09-28T04:39:43.122Z,11.01
2022-09-28T04:42:14.607Z,10.97
2022-09-28T04:44:42.479Z,10.94
2022-09-28T04:47:10.646Z,10.91
2022-09-28T04:49:57.164Z,10.88
2022-09-28T04:52:36.966Z,10.85
2022-09-28T04:55:06.519Z,10.82
2022-09-28T04:57:35.772Z,10.79
2022-09-28T05:00:04.799Z,10.77
2022-09-28T05:02:35.569Z,10.75
2022-09-28T05:05:23.681Z,10.72
2022-09-28T05:08:30.457Z,10.71
2022-09-28T05:11:00.439Z,10.70
2022-09-28T05:13:29.461Z,10.68
2022-09-28T05:16:03.065Z,10.66
2022-09-28T05:18:34.887Z,10.64
2022-09-28T05:21:09.473Z,10.63
2022-09-28T05:23:37.303Z,10.64
2022-09-28T05:26:08.447Z,10.65
2022-09-28T05:28:37.058Z,10.65
2022-09-28T05:31:32.643Z,10.64
2022-09-28T05:34:13.873Z,10.64
2022-09-28T05:36:42.989Z,10.65
2022-09-28T05:39:10.801Z,10.64
2022-09-28T05:41:38.619Z,10.64
2022-09-28T05:44:06.617Z,10.63
2022-09-28T05:46:35.620Z,10.60
2022-09-28T05:49:03.774Z,10.58
2022-09-28T05:51:31.929Z,10.58
2022-09-28T05:54:03.278Z,10.57
2022-09-28T05:56:34.408Z,10.56
2022-09-28T05:59:06.260Z,10.53
2022-09-28T06:01:34.178Z,10.51
2022-09-28T06:04:03.129Z,10.49
2022-09-28T06:06:32.190Z,10.47
2022-09-28T06:09:00.160Z,10.47
2022-09-28T06:11:48.397Z,10.47
2022-09-28T06:14:24.191Z,10.45
2022-09-28T06:16:52.595Z,10.43
2022-09-28T06:19:20.471Z,10.41
2022-09-28T06:22:00.805Z,10.40
2022-09-28T06:24:28.977Z,10.39
2022-09-28T06:26:56.764Z,10.40
2022-09-28T06:29:24.866Z,10.41
2022-09-28T06:31:53.478Z,10.45
2022-09-28T06:34:21.677Z,10.48
2022-09-28T06:36:49.947Z,10.50
2022-09-28T06:39:17.978Z,10.52
2022-09-28T06:41:45.749Z,10.54
2022-09-28T06:44:16.858Z,10.55
2022-09-28T06:47:22.334Z,10.58
2022-09-28T06:50:12.297Z,10.62
2022-09-28T06:53:00.287Z,10.64
2022-09-28T06:55:54.809Z,10.65
2022-09-28T06:58:23.895Z,10.67
2022-09-28T07:00:52.146Z,10.69
2022-09-28T07:03:22.762Z,10.70
2022-09-28T07:06:24.273Z,10.70
2022-09-28T07:09:32.383Z,10.70
2022-09-28T07:12:25.508Z,10.71
2022-09-28T07:15:01.124Z,10.73
2022-09-28T07:17:29.812Z,10.74
2022-09-28T07:20:09.215Z,10.75
2022-09-28T07:22:43.958Z,10.75
2022-09-28T07:25:17.764Z,10.76
2022-09-28T07:27:50.493Z,10.77
2022-09-28T07:30:50.896Z,10.80
2022-09-28T07:33:35.769Z,10.83
2022-09-28T07:36:20.944Z,10.88
2022-09-28T07:38:49.051Z,10.92
2022-09-28T07:41:22.559Z,10.95
2022-09-28T07:43:52.698Z,10.96
2022-09-28T07:46:21.370Z,10.97
2022-09-28T07:48:56.583Z,10.97
2022-09-28T07:51:33.997Z,11.03
2022-09-28T07:54:31.410Z,11.11
2022-09-28T07:57:28.734Z,11.21
2022-09-28T08:00:23.011Z,11.27
2022-09-28T08:02:51.389Z,11.29
2022-09-28T08:05:24.032Z,11.30
2022-09-28T08:07:53.131Z,11.28
2022-09-28T08:10:21.210Z,11.32
2022-09-28T08:13:16.490Z,11.37
2022-09-28T08:16:01.184Z,11.46
2022-09-28T08:18:36.253Z,11.53
2022-09-28T08:21:25.167Z,11.60
2022-09-28T08:23:53.376Z,11.70
2022-09-28T08:26:21.918Z,11.84
2022-09-28T08:28:51.309Z,11.98
2022-09-28T08:31:37.950Z,12.05
2022-09-28T08:34:13.774Z,12.10
2022-09-28T08:37:00.849Z,12.14
2022-09-28T08:40:17.421Z,12.17
2022-09-28T08:43:39.804Z,12.17
2022-09-28T08:46:35.506Z,12.20
2022-09-28T08:49:37.207Z,12.31
2022-09-28T08:52:40.133Z,12.42
2022-09-28T08:55:47.190Z,12.51
2022-09-28T08:58:26.133Z,12.57
2022-09-28T09:00:54.636Z,12.60
2022-09-28T09:03:39.528Z,12.64
2022-09-28T09:06:44.904Z,12.68
2022-09-28T09:10:13.501Z,12.70
2022-09-28T09:12:55.055Z,12.71
2022-09-28T09:15:43.413Z,12.76
2022-09-28T09:18:35.513Z,12.83
2022-09-28T09:21:47.822Z,12.93
2022-09-28T09:24:27.466Z,13.04
2022-09-28T09:27:06.995Z,13.16
2022-09-28T09:30:04.200Z,13.27
2022-09-28T09:32:47.874Z,13.31
2022-09-28T09:35:58.816Z,13.31
2022-09-28T09:38:54.508Z,13.34
2022-09-28T09:42:15.561Z,13.42
2022-09-28T09:45:28.831Z,13.48
2022-09-28T09:48:27.783Z,13.51
2022-09-28T09:51:05.041Z,13.56
2022-09-28T09:53:59.896Z,13.60
2022-09-28T09:56:38.602Z,13.65
2022-09-28T09:59:15.557Z,13.65
2022-09-28T10:02:15.605Z,13.63
2022-09-28T10:04:55.234Z,13.64
2022-09-28T10:07:43.272Z,13.66
2022-09-28T10:10:19.211Z,13.70
2022-09-28T10:12:51.376Z,13.75
2022-09-28T10:15:31.453Z,13.80
2022-09-28T10:18:21.468Z,13.85
2022-09-28T10:21:18.610Z,13.86
2022-09-28T10:23:58.901Z,13.85
2022-09-28T10:26:53.158Z,13.81
2022-09-28T10:29:25.037Z,13.74
2022-09-28T10:31:54.806Z,13.71
2022-09-28T10:34:35.747Z,13.73
2022-09-28T10:37:11.425Z,13.76
2022-09-28T10:40:43.578Z,13.79
2022-09-28T10:43:25.105Z,13.83
2022-09-28T10:46:11.187Z,13.85
2022-09-28T10:49:02.230Z,13.84
2022-09-28T10:52:00.821Z,13.83
2022-09-28T10:54:34.554Z,13.85
2022-09-28T10:57:02.563Z,13.84
2022-09-28T10:59:47.621Z,13.84
2022-09-28T11:02:35.933Z,13.81
2022-09-28T11:05:33.973Z,13.76
2022-09-28T11:08:06.881Z,13.74
2022-09-28T11:10:40.723Z,13.72
2022-09-28T11:13:12.740Z,13.71
2022-09-28T11:15:44.426Z,13.69
2022-09-28T11:18:26.425Z,13.70
2022-09-28T11:21:11.286Z,13.67
2022-09-28T11:23:42.341Z,13.68
2022-09-28T11:26:19.029Z,13.67
2022-09-28T11:28:52.448Z,13.66
2022-09-28T11:31:29.037Z,13.66
2022-09-28T11:34:36.442Z,13.66
2022-09-28T11:37:54.170Z,13.65
2022-09-28T11:40:44.328Z,13.64
2022-09-28T11:43:41.684Z,13.65
2022-09-28T11:46:14.253Z,13.65
2022-09-28T11:48:51.237Z,13.65
2022-09-28T11:51:32.232Z,13.63
2022-09-28T11:54:14.638Z,13.61
2022-09-28T11:56:50.055Z,13.61
2022-09-28T11:59:27.795Z,13.59
2022-09-28T12:01:59.725Z,13.58
2022-09-28T12:04:43.857Z,13.55
2022-09-28T12:07:23.282Z,13.53
2022-09-28T12:10:10.310Z,13.51
2022-09-28T12:12:45.597Z,13.48
2022-09-28T12:15:28.460Z,13.44
2022-09-28T12:18:03.802Z,13.41
2022-09-28T12:20:50.277Z,13.39
2022-09-28T12:23:25.984Z,13.38
2022-09-28T12:25:59.443Z,13.37
2022-09-28T12:28:46.012Z,13.38
2022-09-28T12:31:26.493Z,13.41
2022-09-28T12:33:55.941Z,13.46
2022-09-28T12:36:42.750Z,13.53
2022-09-28T12:39:46.965Z,13.63
2022-09-28T12:42:39.423Z,13.75
2022-09-28T12:45:30.970Z,13.82
2022-09-28T12:48:21.825Z,13.87
2022-09-28T12:51:14.458Z,13.89
2022-09-28T12:54:07.247Z,13.89
2022-09-28T12:56:50.147Z,13.88
2022-09-28T12:59:31.212Z,13.87
2022-09-28T13:02:27.504Z,13.87
2022-09-28T13:05:02.236Z,13.85
2022-09-28T13:07:49.889Z,13.85
2022-09-28T13:10:35.093Z,13.85
2022-09-28T13:13:17.236Z,13.84
2022-09-28T13:16:06.232Z,13.81
2022-09-28T13:18:39.605Z,13.77
2022-09-28T13:21:34.503Z,13.73
2022-09-28T13:24:20.973Z,13.73
2022-09-28T13:26:55.772Z,13.79
2022-09-28T13:29:25.094Z,13.86
2022-09-28T13:31:57.628Z,13.94
2022-09-28T13:34:29.022Z,14.02
2022-09-28T13:37:16.982Z,14.07
2022-09-28T13:39:45.011Z,14.12
2022-09-28T13:42:25.152Z,14.16
2022-09-28T13:45:03.498Z,14.20
2022-09-28T13:47:54.004Z,14.22
2022-09-28T13:50:34.644Z,14.22
2022-09-28T13:53:40.274Z,14.21
2022-09-28T13:56:33.260Z,14.17
2022-09-28T13:59:22.340Z,14.15
2022-09-28T14:01:58.146Z,14.14
2022-09-28T14:04:58.418Z,14.12
2022-09-28T14:07:35.084Z,14.12
2022-09-28T14:10:26.056Z,14.13
2022-09-28T14:12:55.094Z,14.12
2022-09-28T14:15:28.999Z,14.12
2022-09-28T14:18:25.603Z,14.10
2022-09-28T14:21:16.233Z,14.07
2022-09-28T14:24:05.644Z,14.03
2022-09-28T14:27:02.930Z,13.99
2022-09-28T14:29:34.263Z,13.96
2022-09-28T14:32:25.890Z,13.93
2022-09-28T14:35:06.201Z,13.90
2022-09-28T14:37:55.278Z,13.89
2022-09-28T14:40:49.781Z,13.89
2022-09-28T14:43:27.111Z,13.86
2022-09-28T14:46:28.140Z,13.88
2022-09-28T14:49:19.324Z,14.01
2022-09-28T14:51:48.157Z,14.09
2022-09-28T14:54:27.916Z,14.11
2022-09-28T14:57:26.802Z,14.12
2022-09-28T14:59:56.187Z,14.10
2022-09-28T15:02:32.362Z,14.08
2022-09-28T15:05:07.167Z,14.04
2022-09-28T15:07:51.683Z,14.02
2022-09-28T15:10:32.835Z,13.99
2022-09-28T15:13:03.222Z,13.96
2022-09-28T15:15:38.325Z,13.92
2022-09-28T15:18:18.455Z,13.90
2022-09-28T15:20:49.187Z,13.87
2022-09-28T15:23:47.026Z,13.84
2022-09-28T15:26:31.680Z,13.79
2022-09-28T15:29:03.474Z,13.74
2022-09-28T15:31:37.072Z,13.69
2022-09-28T15:34:23.501Z,13.65
2022-09-28T15:36:52.376Z,13.61
2022-09-28T15:39:48.382Z,13.57
2022-09-28T15:42:20.597Z,13.51
2022-09-28T15:45:24.962Z,13.46
2022-09-28T15:48:00.917Z,13.42
2022-09-28T15:50:30.056Z,13.40
2022-09-28T15:53:04.457Z,13.37
2022-09-28T15:55:39.620Z,13.34
2022-09-28T15:58:18.822Z,13.30
2022-09-28T16:00:51.838Z,13.25
2022-09-28T16:03:24.183Z,13.20
2022-09-28T16:06:10.878Z,13.15
2022-09-28T16:08:43.942Z,13.11
2022-09-28T16:11:24.322Z,13.07
2022-09-28T16:13:56.474Z,13.03
2022-09-28T16:16:30.118Z,12.99
2022-09-28T16:19:01.315Z,12.96
2022-09-28T16:21:47.068Z,12.94
2022-09-28T16:24:24.856Z,12.91
2022-09-28T16:27:28.123Z,12.87
2022-09-28T16:30:20.447Z,12.82
2022-09-28T16:33:01.898Z,12.78
2022-09-28T16:35:50.632Z,12.74
2022-09-28T16:38:19.780Z,12.70
2022-09-28T16:40:49.991Z,12.67
2022-09-28T16:43:27.980Z,12.64
2022-09-28T16:45:59.336Z,12.59
2022-09-28T16:48:29.660Z,12.54
2022-09-28T16:50:58.398Z,12.49
2022-09-28T16:53:45.978Z,12.45
2022-09-28T16:56:14.339Z,12.41
2022-09-28T16:58:42.608Z,12.39
2022-09-28T17:01:12.494Z,12.37
2022-09-28T17:03:47.043Z,12.35
2022-09-28T17:06:16.549Z,12.33
2022-09-28T17:08:45.246Z,12.32
2022-09-28T17:11:19.222Z,12.31
2022-09-28T17:13:50.601Z,12.30
2022-09-28T17:19:25.957Z,12.30
2022-09-28T17:21:54.042Z,12.28
2022-09-28T17:24:22.102Z,12.27
2022-09-28T17:26:52.038Z,12.25
2022-09-28T17:29:21.921Z,12.23
2022-09-28T17:31:49.761Z,12.21
2022-09-28T17:34:19.831Z,12.18
2022-09-28T17:36:47.987Z,12.16
2022-09-28T17:39:18.732Z,12.14
2022-09-28T17:41:46.968Z,12.13
2022-09-28T17:44:16.349Z,12.10
2022-09-28T17:46:48.956Z,12.07
2022-09-28T17:49:17.431Z,12.03
2022-09-28T17:51:45.277Z,12.00
2022-09-28T17:54:13.760Z,11.97
2022-09-28T17:56:42.779Z,11.95
2022-09-28T17:59:13.836Z,11.92
2022-09-28T18:01:42.319Z,11.89
2022-09-28T18:04:22.984Z,11.85
2022-09-28T18:07:00.622Z,11.81
2022-09-28T18:09:28.590Z,11.78
2022-09-28T18:12:00.987Z,11.74
2022-09-28T18:14:30.324Z,11.65
2022-09-28T18:16:58.202Z,11.57
2022-09-28T18:19:31.668Z,11.51
2022-09-28T18:22:05.229Z,11.46
2022-09-28T18:24:34.911Z,11.41
2022-09-28T18:27:03.146Z,11.38
2022-09-28T18:29:33.482Z,11.36
2022-09-28T18:32:02.724Z,11.32
2022-09-28T18:34:30.764Z,11.29
2022-09-28T18:37:02.046Z,11.27
2022-09-28T18:39:30.539Z,11.24
2022-09-28T18:41:58.524Z,11.23
2022-09-28T18:44:26.340Z,11.22
2022-09-28T18:46:54.589Z,11.22
2022-09-28T18:49:23.274Z,11.21
2022-09-28T18:51:51.809Z,11.21
2022-09-28T18:54:19.698Z,11.19
2022-09-28T18:56:47.784Z,11.18
2022-09-28T18:59:16.038Z,11.17
2022-09-28T19:01:44.038Z,11.15
2022-09-28T19:04:12.189Z,11.13
2022-09-28T19:06:41.933Z,11.11
2022-09-28T19:09:10.768Z,11.08
2022-09-28T19:11:38.646Z,11.05
2022-09-28T19:14:06.693Z,11.00
2022-09-28T19:16:35.806Z,10.97
2022-09-28T19:19:06.614Z,10.96
2022-09-28T19:21:34.424Z,10.95
2022-09-28T19:24:04.179Z,10.93
2022-09-28T19:26:33.437Z,10.91
2022-09-28T19:29:03.113Z,10.89
2022-09-28T19:31:32.747Z,10.87
2022-09-28T19:34:00.656Z,10.86
2022-09-28T19:36:29.481Z,10.84
2022-09-28T19:39:02.189Z,10.83
2022-09-28T19:41:51.819Z,10.82
2022-09-28T19:44:27.405Z,10.80
2022-09-28T19:46:59.103Z,10.80
2022-09-28T19:49:28.308Z,10.79
2022-09-28T19:52:12.298Z,10.77
2022-09-28T19:54:48.411Z,10.76
2022-09-28T19:57:16.454Z,10.74
2022-09-28T19:59:44.506Z,10.71
2022-09-28T20:02:12.415Z,10.68
2022-09-28T20:04:40.416Z,10.66
2022-09-28T20:07:08.217Z,10.65
2022-09-28T20:09:36.192Z,10.64
2022-09-28T20:12:04.024Z,10.63
2022-09-28T20:14:36.570Z,10.61
2022-09-28T20:17:08.154Z,10.58
2022-09-28T20:19:36.174Z,10.55
2022-09-28T20:22:04.078Z,10.53
2022-09-28T20:24:32.671Z,10.50
2022-09-28T20:27:01.591Z,10.49
2022-09-28T20:29:34.039Z,10.47
2022-09-28T20:32:04.258Z,10.45
2022-09-28T20:34:34.138Z,10.41
2022-09-28T20:37:02.135Z,10.38
2022-09-28T20:39:30.340Z,10.38
2022-09-28T20:41:58.213Z,10.39
2022-09-28T20:44:26.077Z,10.38
2022-09-28T20:46:54.148Z,10.38
2022-09-28T20:49:21.961Z,10.37
2022-09-28T20:51:49.683Z,10.36
2022-09-28T20:54:17.729Z,10.35
2022-09-28T20:56:48.168Z,10.33
2022-09-28T20:59:16.451Z,10.31
2022-09-28T21:01:44.636Z,10.32
2022-09-28T21:04:14.552Z,10.33
2022-09-28T21:06:43.185Z,10.34
2022-09-28T21:09:12.516Z,10.36
2022-09-28T21:11:41.772Z,10.38
2022-09-28T21:14:10.434Z,10.40
2022-09-28T21:16:38.623Z,10.41
2022-09-28T21:19:06.597Z,10.41
2022-09-28T21:21:34.821Z,10.41
2022-09-28T21:24:03.312Z,10.41
2022-09-28T21:26:31.680Z,10.41
2022-09-28T21:29:11.148Z,10.42
2022-09-28T21:31:41.717Z,10.42
2022-09-28T21:34:19.483Z,10.42
2022-09-28T21:36:51.195Z,10.41
2022-09-28T21:39:22.924Z,10.40
2022-09-28T21:41:51.143Z,10.37
2022-09-28T21:44:19.079Z,10.32
2022-09-28T21:46:47.560Z,10.25
2022-09-28T21:49:15.575Z,10.18
2022-09-28T21:51:43.584Z,10.12
2022-09-28T21:54:12.158Z,10.07
2022-09-28T21:56:40.124Z,10.02
2022-09-28T21:59:07.932Z,9.96
2022-09-28T22:01:35.962Z,9.92
2022-09-28T22:04:03.868Z,9.87
2022-09-28T22:06:31.585Z,9.84
2022-09-28T22:08:59.569Z,9.80
2022-09-28T22:11:28.761Z,9.78
2022-09-28T22:13:59.113Z,9.76
2022-09-28T22:16:29.487Z,9.71
2022-09-28T22:18:58.747Z,9.67
2022-09-28T22:21:35.238Z,9.63
2022-09-28T22:24:05.952Z,9.59
2022-09-28T22:26:36.506Z,9.55
2022-09-28T22:29:07.399Z,9.53
2022-09-28T22:31:38.329Z,9.52
2022-09-28T22:34:07.399Z,9.53
2022-09-28T22:36:35.593Z,9.52
2022-09-28T22:39:04.777Z,9.51
2022-09-28T22:41:33.044Z,9.51
2022-09-28T22:44:01.324Z,9.50
2022-09-28T22:46:32.278Z,9.49
2022-09-28T22:49:00.891Z,9.47
2022-09-28T22:51:30.223Z,9.44
2022-09-28T22:53:58.780Z,9.40
2022-09-28T22:56:27.271Z,9.36
2022-09-28T22:58:54.965Z,9.31
2022-09-28T23:01:28.824Z,9.27
2022-09-28T23:03:58.143Z,9.21
2022-09-28T23:06:28.241Z,9.16
2022-09-28T23:08:56.046Z,9.12
2022-09-28T23:11:24.153Z,9.12
2022-09-28T23:13:54.130Z,9.12
2022-09-28T23:16:25.055Z,9.11
2022-09-28T23:18:55.219Z,9.09
2022-09-28T23:21:25.431Z,9.05
2022-09-28T23:23:56.552Z,9.02
2022-09-28T23:26:27.219Z,8.97
2022-09-28T23:28:55.719Z,8.94
2022-09-28T23:31:26.646Z,8.91
2022-09-28T23:34:03.241Z,8.87
2022-09-28T23:36:32.023Z,8.85
2022-09-28T23:39:00.067Z,8.84
2022-09-28T23:41:28.107Z,8.82
2022-09-28T23:43:55.881Z,8.81
2022-09-28T23:46:24.168Z,8.78
2022-09-28T23:48:52.110Z,8.78
2022-09-28T23:51:20.057Z,8.78
2022-09-28T23:53:48.154Z,8.79
2022-09-28T23:56:16.030Z,8.80
2022-09-28T23:58:43.943Z,8.83
